Airfield :







YOU CAN JOIN US ON...

 
LOGIN :

Register | Disclaimer

   EN    FR    IT 

 









Legend :    VFR   Marginal VFR   IFR   Intensive IFR   Very Intensive IFR
Visi :
Ceiling :
>= 8 km
>= 3000ft
5 to 8 km
1000 to 3000 ft
1500m to 5 km
500 to 1000 ft
800 to 1500m
200 to 500 ft
< 800m
< 200 ft
Symbols :   Thunderstorms  Fog  Heavy snow  Heavy precipitations  Wind > 20 kt






- Airport Elevation : 141 ft
- IATA code : YQI


CYQI - Yarmouth

CURRENT METAR :
  • 220100Z 07005KT 15SM BKN026 BKN140 BKN200 M11/M14 A3040 RMK SC5AC2CI1 CI TR SLP298

EXPIRED METARs :
  • 220000Z 07003KT 15SM FEW022 OVC140 M11/M14 A3040 RMK SC2AC6 SLP298
  • 212334Z 07005KT 15SM FEW022 BKN140 M11/M14 A3039 RMK SC2AC4 SLP295
  • 212300Z 06004KT 15SM -SHSN SCT019 SCT140 M10/M13 A3038 RMK SC3AC1 CVCTV CLD EMBD SLP292

TAF TAF CYQI
Valid from the 22 at 00:00 until the 22 at 12:00 UTC


212338Z 2200/2212 VRB03KT P6SM BKN030
TEMPO 2200/2212 4SM -SHSN OVC020 RMK NXT FCST BY 220600Z



MET'MAP, your aeronautical weather chart ! - Copyright ORBIFLY December 2007 - Disclaimer

ORBIFLY MET'MAP TEAM :

Programming & Development : Alexandra Zaïnal
Concept & original design : Baudouin d'Aumeries
Assistance for programming : Marc-Olivier Méhu
Technical & hardware support : Manuel Goepfert

Contact : metmap@orbifly.com




SOURCES & CREDITS :

   NOAA